sensor_id;sensor_type;location;lat;lon;timestamp;P1;durP1;ratioP1;P2;durP2;ratioP2
81351;SDS011;70809;52.184;13.422;2024-03-07T00:00:02;156.18;;;43.67;;
81351;SDS011;70809;52.184;13.422;2024-03-07T00:01:12;150.00;;;42.75;;
81351;SDS011;70809;52.184;13.422;2024-03-07T00:02:13;156.15;;;41.38;;
81351;SDS011;70809;52.184;13.422;2024-03-07T00:03:15;145.20;;;43.10;;
81351;SDS011;70809;52.184;13.422;2024-03-07T00:04:17;153.77;;;42.90;;
81351;SDS011;70809;52.184;13.422;2024-03-07T00:05:19;145.70;;;41.78;;
81351;SDS011;70809;52.184;13.422;2024-03-07T00:06:22;158.13;;;42.38;;
81351;SDS011;70809;52.184;13.422;2024-03-07T00:07:25;143.35;;;40.50;;
81351;SDS011;70809;52.184;13.422;2024-03-07T00:08:26;141.30;;;42.58;;
81351;SDS011;70809;52.184;13.422;2024-03-07T00:09:28;145.60;;;40.17;;
81351;SDS011;70809;52.184;13.422;2024-03-07T00:10:30;141.45;;;42.83;;
81351;SDS011;70809;52.184;13.422;2024-03-07T00:11:31;162.98;;;44.88;;
81351;SDS011;70809;52.184;13.422;2024-03-07T00:12:33;147.63;;;40.92;;
81351;SDS011;70809;52.184;13.422;2024-03-07T00:13:35;139.55;;;41.25;;
81351;SDS011;70809;52.184;13.422;2024-03-07T00:14:36;147.70;;;40.03;;
81351;SDS011;70809;52.184;13.422;2024-03-07T00:15:38;144.77;;;42.53;;
81351;SDS011;70809;52.184;13.422;2024-03-07T00:16:40;135.70;;;40.58;;
81351;SDS011;70809;52.184;13.422;2024-03-07T00:17:41;138.25;;;40.30;;
81351;SDS011;70809;52.184;13.422;2024-03-07T00:18:43;135.63;;;41.65;;
81351;SDS011;70809;52.184;13.422;2024-03-07T00:19:45;148.75;;;41.38;;
81351;SDS011;70809;52.184;13.422;2024-03-07T00:20:47;147.98;;;41.50;;
81351;SDS011;70809;52.184;13.422;2024-03-07T00:21:48;140.70;;;42.03;;
81351;SDS011;70809;52.184;13.422;2024-03-07T00:22:51;137.95;;;41.75;;
81351;SDS011;70809;52.184;13.422;2024-03-07T00:23:53;148.40;;;41.78;;
81351;SDS011;70809;52.184;13.422;2024-03-07T00:24:54;140.27;;;42.42;;
81351;SDS011;70809;52.184;13.422;2024-03-07T00:25:56;149.23;;;42.30;;
81351;SDS011;70809;52.184;13.422;2024-03-07T00:26:58;146.10;;;41.50;;
81351;SDS011;70809;52.184;13.422;2024-03-07T00:27:59;144.68;;;40.67;;
81351;SDS011;70809;52.184;13.422;2024-03-07T00:29:01;130.65;;;38.55;;
81351;SDS011;70809;52.184;13.422;2024-03-07T00:30:03;148.18;;;41.25;;
81351;SDS011;70809;52.184;13.422;2024-03-07T00:31:05;121.93;;;37.97;;
81351;SDS011;70809;52.184;13.422;2024-03-07T00:32:07;131.55;;;40.47;;
81351;SDS011;70809;52.184;13.422;2024-03-07T00:33:08;146.85;;;43.00;;
81351;SDS011;70809;52.184;13.422;2024-03-07T00:34:10;150.23;;;41.65;;
81351;SDS011;70809;52.184;13.422;2024-03-07T00:35:20;134.20;;;41.70;;
81351;SDS011;70809;52.184;13.422;2024-03-07T00:36:22;131.30;;;40.22;;
81351;SDS011;70809;52.184;13.422;2024-03-07T00:37:23;132.05;;;41.65;;
81351;SDS011;70809;52.184;13.422;2024-03-07T00:38:26;154.35;;;41.80;;
81351;SDS011;70809;52.184;13.422;2024-03-07T00:39:28;128.55;;;37.95;;
81351;SDS011;70809;52.184;13.422;2024-03-07T00:40:30;139.15;;;40.25;;
81351;SDS011;70809;52.184;13.422;2024-03-07T00:41:32;135.27;;;39.95;;
81351;SDS011;70809;52.184;13.422;2024-03-07T00:42:33;142.35;;;42.03;;
81351;SDS011;70809;52.184;13.422;2024-03-07T00:43:35;139.65;;;42.13;;
81351;SDS011;70809;52.184;13.422;2024-03-07T00:44:37;136.90;;;39.45;;
81351;SDS011;70809;52.184;13.422;2024-03-07T00:45:39;134.30;;;40.00;;
81351;SDS011;70809;52.184;13.422;2024-03-07T00:46:40;124.88;;;39.45;;
81351;SDS011;70809;52.184;13.422;2024-03-07T00:47:42;129.30;;;41.08;;
81351;SDS011;70809;52.184;13.422;2024-03-07T00:48:43;137.27;;;41.40;;
81351;SDS011;70809;52.184;13.422;2024-03-07T00:49:45;134.35;;;42.15;;
81351;SDS011;70809;52.184;13.422;2024-03-07T00:50:47;129.75;;;41.47;;
81351;SDS011;70809;52.184;13.422;2024-03-07T00:51:48;120.22;;;38.50;;
81351;SDS011;70809;52.184;13.422;2024-03-07T00:52:51;142.65;;;40.13;;
81351;SDS011;70809;52.184;13.422;2024-03-07T00:53:54;131.40;;;40.40;;
81351;SDS011;70809;52.184;13.422;2024-03-07T00:54:55;127.70;;;37.50;;
81351;SDS011;70809;52.184;13.422;2024-03-07T00:55:57;122.60;;;38.65;;
81351;SDS011;70809;52.184;13.422;2024-03-07T00:56:58;132.07;;;38.00;;
81351;SDS011;70809;52.184;13.422;2024-03-07T00:58:03;132.32;;;38.85;;
81351;SDS011;70809;52.184;13.422;2024-03-07T00:59:05;135.85;;;40.05;;
81351;SDS011;70809;52.184;13.422;2024-03-07T01:00:07;126.05;;;40.53;;
81351;SDS011;70809;52.184;13.422;2024-03-07T01:01:09;137.38;;;42.28;;
81351;SDS011;70809;52.184;13.422;2024-03-07T01:02:11;120.45;;;40.03;;
81351;SDS011;70809;52.184;13.422;2024-03-07T01:03:13;116.50;;;38.78;;
81351;SDS011;70809;52.184;13.422;2024-03-07T01:04:15;130.50;;;39.00;;
81351;SDS011;70809;52.184;13.422;2024-03-07T01:05:16;118.82;;;39.35;;
81351;SDS011;70809;52.184;13.422;2024-03-07T01:06:18;122.28;;;39.55;;
81351;SDS011;70809;52.184;13.422;2024-03-07T01:07:19;119.55;;;38.60;;
81351;SDS011;70809;52.184;13.422;2024-03-07T01:08:21;115.30;;;38.08;;
81351;SDS011;70809;52.184;13.422;2024-03-07T01:09:24;127.88;;;40.42;;
81351;SDS011;70809;52.184;13.422;2024-03-07T01:10:27;128.10;;;40.03;;
81351;SDS011;70809;52.184;13.422;2024-03-07T01:11:28;128.45;;;40.88;;
81351;SDS011;70809;52.184;13.422;2024-03-07T01:12:30;124.07;;;37.63;;
81351;SDS011;70809;52.184;13.422;2024-03-07T01:13:36;118.75;;;37.50;;
81351;SDS011;70809;52.184;13.422;2024-03-07T01:14:37;114.30;;;37.13;;
81351;SDS011;70809;52.184;13.422;2024-03-07T01:15:39;108.32;;;37.65;;
81351;SDS011;70809;52.184;13.422;2024-03-07T01:16:41;119.10;;;38.55;;
81351;SDS011;70809;52.184;13.422;2024-03-07T01:17:42;107.57;;;34.65;;
81351;SDS011;70809;52.184;13.422;2024-03-07T01:18:44;110.30;;;35.92;;
81351;SDS011;70809;52.184;13.422;2024-03-07T01:19:46;121.40;;;39.75;;
81351;SDS011;70809;52.184;13.422;2024-03-07T01:20:47;113.18;;;38.83;;
81351;SDS011;70809;52.184;13.422;2024-03-07T01:21:49;121.90;;;38.58;;
81351;SDS011;70809;52.184;13.422;2024-03-07T01:22:51;111.28;;;36.25;;
81351;SDS011;70809;52.184;13.422;2024-03-07T01:23:52;121.65;;;37.65;;
81351;SDS011;70809;52.184;13.422;2024-03-07T01:24:56;109.35;;;37.30;;
81351;SDS011;70809;52.184;13.422;2024-03-07T01:25:57;109.53;;;37.22;;
81351;SDS011;70809;52.184;13.422;2024-03-07T01:27:00;118.18;;;40.90;;
81351;SDS011;70809;52.184;13.422;2024-03-07T01:28:01;113.60;;;37.67;;
81351;SDS011;70809;52.184;13.422;2024-03-07T01:29:03;97.35;;;35.70;;
81351;SDS011;70809;52.184;13.422;2024-03-07T01:30:05;105.65;;;35.63;;
81351;SDS011;70809;52.184;13.422;2024-03-07T01:31:07;116.93;;;37.72;;
81351;SDS011;70809;52.184;13.422;2024-03-07T01:32:08;114.25;;;36.72;;
81351;SDS011;70809;52.184;13.422;2024-03-07T01:33:10;111.35;;;37.80;;
81351;SDS011;70809;52.184;13.422;2024-03-07T01:34:12;119.95;;;36.63;;
81351;SDS011;70809;52.184;13.422;2024-03-07T01:35:13;112.60;;;37.58;;
81351;SDS011;70809;52.184;13.422;2024-03-07T01:36:15;105.47;;;36.22;;
81351;SDS011;70809;52.184;13.422;2024-03-07T01:37:17;114.45;;;36.15;;
81351;SDS011;70809;52.184;13.422;2024-03-07T01:38:18;103.18;;;35.67;;
81351;SDS011;70809;52.184;13.422;2024-03-07T01:39:20;112.50;;;36.67;;
81351;SDS011;70809;52.184;13.422;2024-03-07T01:40:23;113.03;;;38.05;;
81351;SDS011;70809;52.184;13.422;2024-03-07T01:41:24;102.05;;;36.30;;
81351;SDS011;70809;52.184;13.422;2024-03-07T01:42:26;108.95;;;36.65;;
81351;SDS011;70809;52.184;13.422;2024-03-07T01:43:28;100.28;;;34.72;;
81351;SDS011;70809;52.184;13.422;2024-03-07T01:44:29;96.50;;;34.40;;
81351;SDS011;70809;52.184;13.422;2024-03-07T01:45:31;97.85;;;35.15;;
81351;SDS011;70809;52.184;13.422;2024-03-07T01:46:32;105.00;;;36.70;;
81351;SDS011;70809;52.184;13.422;2024-03-07T01:47:34;109.80;;;36.10;;
81351;SDS011;70809;52.184;13.422;2024-03-07T01:48:36;94.25;;;35.75;;
81351;SDS011;70809;52.184;13.422;2024-03-07T01:49:39;111.60;;;36.22;;
81351;SDS011;70809;52.184;13.422;2024-03-07T01:50:41;97.95;;;35.45;;
81351;SDS011;70809;52.184;13.422;2024-03-07T01:51:42;111.43;;;37.70;;
81351;SDS011;70809;52.184;13.422;2024-03-07T01:52:44;90.75;;;34.28;;
81351;SDS011;70809;52.184;13.422;2024-03-07T01:53:46;106.80;;;35.97;;
81351;SDS011;70809;52.184;13.422;2024-03-07T01:54:48;102.00;;;36.17;;
81351;SDS011;70809;52.184;13.422;2024-03-07T01:55:51;100.82;;;35.50;;
81351;SDS011;70809;52.184;13.422;2024-03-07T01:56:53;100.38;;;35.72;;
81351;SDS011;70809;52.184;13.422;2024-03-07T01:57:57;92.55;;;34.22;;
81351;SDS011;70809;52.184;13.422;2024-03-07T01:59:01;98.35;;;33.40;;
81351;SDS011;70809;52.184;13.422;2024-03-07T02:00:03;105.30;;;35.03;;
81351;SDS011;70809;52.184;13.422;2024-03-07T02:01:07;95.05;;;35.65;;
81351;SDS011;70809;52.184;13.422;2024-03-07T02:02:08;90.65;;;33.50;;
81351;SDS011;70809;52.184;13.422;2024-03-07T02:03:10;98.70;;;34.60;;
81351;SDS011;70809;52.184;13.422;2024-03-07T02:04:12;92.93;;;37.40;;
81351;SDS011;70809;52.184;13.422;2024-03-07T02:05:13;90.70;;;31.80;;
81351;SDS011;70809;52.184;13.422;2024-03-07T02:06:15;95.57;;;34.70;;
81351;SDS011;70809;52.184;13.422;2024-03-07T02:07:17;91.00;;;34.90;;
81351;SDS011;70809;52.184;13.422;2024-03-07T02:08:18;88.55;;;32.33;;
81351;SDS011;70809;52.184;13.422;2024-03-07T02:09:20;94.68;;;33.70;;
81351;SDS011;70809;52.184;13.422;2024-03-07T02:10:22;97.70;;;34.50;;
81351;SDS011;70809;52.184;13.422;2024-03-07T02:11:25;90.97;;;33.63;;
81351;SDS011;70809;52.184;13.422;2024-03-07T02:12:27;100.28;;;34.17;;
81351;SDS011;70809;52.184;13.422;2024-03-07T02:13:28;89.35;;;36.25;;
81351;SDS011;70809;52.184;13.422;2024-03-07T02:14:30;92.13;;;34.35;;
81351;SDS011;70809;52.184;13.422;2024-03-07T02:15:31;89.95;;;33.15;;
81351;SDS011;70809;52.184;13.422;2024-03-07T02:16:33;103.30;;;35.17;;
81351;SDS011;70809;52.184;13.422;2024-03-07T02:17:35;92.70;;;32.90;;
81351;SDS011;70809;52.184;13.422;2024-03-07T02:18:38;96.57;;;34.60;;
81351;SDS011;70809;52.184;13.422;2024-03-07T02:19:39;97.28;;;33.38;;
81351;SDS011;70809;52.184;13.422;2024-03-07T02:20:43;96.07;;;34.00;;
81351;SDS011;70809;52.184;13.422;2024-03-07T02:21:45;95.65;;;34.35;;
81351;SDS011;70809;52.184;13.422;2024-03-07T02:22:47;92.05;;;33.30;;
81351;SDS011;70809;52.184;13.422;2024-03-07T02:23:48;103.18;;;34.78;;
81351;SDS011;70809;52.184;13.422;2024-03-07T02:24:50;93.63;;;33.00;;
81351;SDS011;70809;52.184;13.422;2024-03-07T02:25:52;89.95;;;34.30;;
81351;SDS011;70809;52.184;13.422;2024-03-07T02:26:53;89.25;;;33.03;;
81351;SDS011;70809;52.184;13.422;2024-03-07T02:27:55;101.43;;;34.40;;
81351;SDS011;70809;52.184;13.422;2024-03-07T02:28:56;93.05;;;33.20;;
81351;SDS011;70809;52.184;13.422;2024-03-07T02:29:58;98.22;;;33.42;;
81351;SDS011;70809;52.184;13.422;2024-03-07T02:31:00;104.30;;;35.63;;
81351;SDS011;70809;52.184;13.422;2024-03-07T02:32:01;92.28;;;33.42;;
81351;SDS011;70809;52.184;13.422;2024-03-07T02:33:03;98.97;;;34.50;;
81351;SDS011;70809;52.184;13.422;2024-03-07T02:34:05;95.95;;;34.83;;
81351;SDS011;70809;52.184;13.422;2024-03-07T02:35:07;102.97;;;33.78;;
81351;SDS011;70809;52.184;13.422;2024-03-07T02:36:10;97.10;;;34.60;;
81351;SDS011;70809;52.184;13.422;2024-03-07T02:37:12;103.90;;;34.28;;
81351;SDS011;70809;52.184;13.422;2024-03-07T02:38:14;105.47;;;35.30;;
81351;SDS011;70809;52.184;13.422;2024-03-07T02:39:15;99.63;;;35.90;;
81351;SDS011;70809;52.184;13.422;2024-03-07T02:40:17;101.05;;;34.90;;
81351;SDS011;70809;52.184;13.422;2024-03-07T02:41:19;104.20;;;34.28;;
81351;SDS011;70809;52.184;13.422;2024-03-07T02:42:20;100.70;;;34.72;;
81351;SDS011;70809;52.184;13.422;2024-03-07T02:43:22;91.65;;;34.67;;
81351;SDS011;70809;52.184;13.422;2024-03-07T02:44:24;84.13;;;31.20;;
81351;SDS011;70809;52.184;13.422;2024-03-07T02:45:25;89.15;;;33.20;;
81351;SDS011;70809;52.184;13.422;2024-03-07T02:46:27;86.35;;;33.92;;
81351;SDS011;70809;52.184;13.422;2024-03-07T02:47:29;107.85;;;36.50;;
81351;SDS011;70809;52.184;13.422;2024-03-07T02:48:30;91.60;;;32.83;;
81351;SDS011;70809;52.184;13.422;2024-03-07T02:49:32;92.13;;;33.85;;
81351;SDS011;70809;52.184;13.422;2024-03-07T02:50:33;103.05;;;35.17;;
81351;SDS011;70809;52.184;13.422;2024-03-07T02:51:36;96.82;;;34.63;;
81351;SDS011;70809;52.184;13.422;2024-03-07T02:52:38;103.03;;;35.45;;
81351;SDS011;70809;52.184;13.422;2024-03-07T02:53:40;93.65;;;33.63;;
81351;SDS011;70809;52.184;13.422;2024-03-07T02:54:41;99.78;;;35.20;;
81351;SDS011;70809;52.184;13.422;2024-03-07T02:55:43;96.05;;;34.10;;
81351;SDS011;70809;52.184;13.422;2024-03-07T02:56:44;104.60;;;36.13;;
81351;SDS011;70809;52.184;13.422;2024-03-07T02:57:46;102.53;;;35.58;;
81351;SDS011;70809;52.184;13.422;2024-03-07T02:58:47;95.45;;;34.53;;
81351;SDS011;70809;52.184;13.422;2024-03-07T02:59:49;91.90;;;33.42;;
81351;SDS011;70809;52.184;13.422;2024-03-07T03:00:56;103.95;;;34.88;;
81351;SDS011;70809;52.184;13.422;2024-03-07T03:01:59;109.07;;;35.65;;
81351;SDS011;70809;52.184;13.422;2024-03-07T03:03:00;95.45;;;34.17;;
81351;SDS011;70809;52.184;13.422;2024-03-07T03:04:02;103.13;;;33.10;;
81351;SDS011;70809;52.184;13.422;2024-03-07T03:05:04;97.53;;;35.00;;
81351;SDS011;70809;52.184;13.422;2024-03-07T03:06:06;101.13;;;34.55;;
81351;SDS011;70809;52.184;13.422;2024-03-07T03:07:09;91.68;;;30.95;;
81351;SDS011;70809;52.184;13.422;2024-03-07T03:08:12;87.65;;;32.17;;
81351;SDS011;70809;52.184;13.422;2024-03-07T03:09:14;81.00;;;32.33;;
81351;SDS011;70809;52.184;13.422;2024-03-07T03:10:16;86.38;;;32.17;;
81351;SDS011;70809;52.184;13.422;2024-03-07T03:11:17;89.95;;;33.65;;
81351;SDS011;70809;52.184;13.422;2024-03-07T03:12:19;87.07;;;31.63;;
81351;SDS011;70809;52.184;13.422;2024-03-07T03:13:20;99.05;;;33.72;;
81351;SDS011;70809;52.184;13.422;2024-03-07T03:14:22;96.38;;;32.85;;
81351;SDS011;70809;52.184;13.422;2024-03-07T03:15:24;99.18;;;33.70;;
81351;SDS011;70809;52.184;13.422;2024-03-07T03:16:25;94.05;;;34.70;;
81351;SDS011;70809;52.184;13.422;2024-03-07T03:17:47;95.68;;;32.70;;
81351;SDS011;70809;52.184;13.422;2024-03-07T03:18:49;86.32;;;31.50;;
81351;SDS011;70809;52.184;13.422;2024-03-07T03:19:50;93.95;;;32.33;;
81351;SDS011;70809;52.184;13.422;2024-03-07T03:20:52;97.60;;;34.10;;
81351;SDS011;70809;52.184;13.422;2024-03-07T03:21:54;81.03;;;30.65;;
81351;SDS011;70809;52.184;13.422;2024-03-07T03:22:57;82.53;;;30.40;;
81351;SDS011;70809;52.184;13.422;2024-03-07T03:25:20;78.60;;;30.45;;
81351;SDS011;70809;52.184;13.422;2024-03-07T03:26:22;82.63;;;31.65;;
81351;SDS011;70809;52.184;13.422;2024-03-07T03:27:23;76.90;;;29.63;;
81351;SDS011;70809;52.184;13.422;2024-03-07T03:28:25;80.30;;;30.58;;
81351;SDS011;70809;52.184;13.422;2024-03-07T03:29:26;76.90;;;29.58;;
81351;SDS011;70809;52.184;13.422;2024-03-07T03:30:28;76.50;;;30.02;;
81351;SDS011;70809;52.184;13.422;2024-03-07T03:31:30;73.88;;;29.20;;
81351;SDS011;70809;52.184;13.422;2024-03-07T03:32:31;80.75;;;29.85;;
81351;SDS011;70809;52.184;13.422;2024-03-07T03:33:33;73.55;;;29.92;;
81351;SDS011;70809;52.184;13.422;2024-03-07T03:34:35;77.68;;;31.90;;
81351;SDS011;70809;52.184;13.422;2024-03-07T03:35:37;75.82;;;31.48;;
81351;SDS011;70809;52.184;13.422;2024-03-07T03:36:39;78.57;;;31.45;;
81351;SDS011;70809;52.184;13.422;2024-03-07T03:37:40;73.68;;;30.88;;
81351;SDS011;70809;52.184;13.422;2024-03-07T03:38:43;74.28;;;27.35;;
81351;SDS011;70809;52.184;13.422;2024-03-07T03:39:45;76.45;;;29.30;;
81351;SDS011;70809;52.184;13.422;2024-03-07T03:40:47;71.68;;;29.45;;
81351;SDS011;70809;52.184;13.422;2024-03-07T03:41:48;69.45;;;29.42;;
81351;SDS011;70809;52.184;13.422;2024-03-07T03:42:50;73.97;;;28.58;;
81351;SDS011;70809;52.184;13.422;2024-03-07T03:43:52;80.20;;;29.77;;
81351;SDS011;70809;52.184;13.422;2024-03-07T03:44:53;67.00;;;28.70;;
81351;SDS011;70809;52.184;13.422;2024-03-07T03:45:55;77.85;;;29.77;;
81351;SDS011;70809;52.184;13.422;2024-03-07T03:46:56;68.78;;;27.27;;
81351;SDS011;70809;52.184;13.422;2024-03-07T03:47:58;73.13;;;30.23;;
81351;SDS011;70809;52.184;13.422;2024-03-07T03:49:00;68.47;;;27.40;;
81351;SDS011;70809;52.184;13.422;2024-03-07T03:50:02;67.05;;;28.33;;
81351;SDS011;70809;52.184;13.422;2024-03-07T03:51:06;73.50;;;28.17;;
81351;SDS011;70809;52.184;13.422;2024-03-07T03:52:08;63.63;;;27.90;;
81351;SDS011;70809;52.184;13.422;2024-03-07T03:53:10;76.88;;;30.77;;
81351;SDS011;70809;52.184;13.422;2024-03-07T03:54:13;72.70;;;28.42;;
81351;SDS011;70809;52.184;13.422;2024-03-07T03:55:16;62.67;;;27.25;;
81351;SDS011;70809;52.184;13.422;2024-03-07T03:56:18;70.32;;;29.02;;
81351;SDS011;70809;52.184;13.422;2024-03-07T03:57:20;70.40;;;28.73;;
81351;SDS011;70809;52.184;13.422;2024-03-07T03:58:21;76.80;;;29.25;;
81351;SDS011;70809;52.184;13.422;2024-03-07T03:59:23;70.50;;;29.95;;
81351;SDS011;70809;52.184;13.422;2024-03-07T04:00:24;72.78;;;28.75;;
81351;SDS011;70809;52.184;13.422;2024-03-07T04:01:26;66.60;;;28.48;;
81351;SDS011;70809;52.184;13.422;2024-03-07T04:02:28;71.00;;;29.80;;
81351;SDS011;70809;52.184;13.422;2024-03-07T04:03:29;70.20;;;28.30;;
81351;SDS011;70809;52.184;13.422;2024-03-07T04:04:31;73.40;;;31.05;;
81351;SDS011;70809;52.184;13.422;2024-03-07T04:05:32;69.38;;;28.88;;
81351;SDS011;70809;52.184;13.422;2024-03-07T04:06:34;68.70;;;28.50;;
81351;SDS011;70809;52.184;13.422;2024-03-07T04:07:36;86.05;;;32.85;;
81351;SDS011;70809;52.184;13.422;2024-03-07T04:08:38;74.60;;;29.65;;
81351;SDS011;70809;52.184;13.422;2024-03-07T04:09:41;75.32;;;30.33;;
81351;SDS011;70809;52.184;13.422;2024-03-07T04:10:42;71.80;;;30.45;;
81351;SDS011;70809;52.184;13.422;2024-03-07T04:11:44;69.20;;;27.20;;
81351;SDS011;70809;52.184;13.422;2024-03-07T04:12:46;65.63;;;28.80;;
81351;SDS011;70809;52.184;13.422;2024-03-07T04:13:48;72.10;;;28.20;;
81351;SDS011;70809;52.184;13.422;2024-03-07T04:14:49;67.90;;;27.65;;
81351;SDS011;70809;52.184;13.422;2024-03-07T04:15:51;60.72;;;27.13;;
81351;SDS011;70809;52.184;13.422;2024-03-07T04:16:53;66.00;;;26.80;;
81351;SDS011;70809;52.184;13.422;2024-03-07T04:17:54;63.28;;;26.45;;
81351;SDS011;70809;52.184;13.422;2024-03-07T04:18:56;75.50;;;27.42;;
81351;SDS011;70809;52.184;13.422;2024-03-07T04:19:57;66.18;;;28.25;;
81351;SDS011;70809;52.184;13.422;2024-03-07T04:20:59;62.42;;;25.08;;
81351;SDS011;70809;52.184;13.422;2024-03-07T04:22:01;70.93;;;28.13;;
81351;SDS011;70809;52.184;13.422;2024-03-07T04:23:03;64.47;;;26.58;;
81351;SDS011;70809;52.184;13.422;2024-03-07T04:24:05;65.82;;;26.77;;
81351;SDS011;70809;52.184;13.422;2024-03-07T04:25:08;65.57;;;26.83;;
81351;SDS011;70809;52.184;13.422;2024-03-07T04:26:10;68.80;;;28.10;;
81351;SDS011;70809;52.184;13.422;2024-03-07T04:27:11;62.70;;;25.85;;
81351;SDS011;70809;52.184;13.422;2024-03-07T04:28:13;68.25;;;26.98;;
81351;SDS011;70809;52.184;13.422;2024-03-07T04:29:14;65.22;;;26.83;;
81351;SDS011;70809;52.184;13.422;2024-03-07T04:30:16;76.95;;;27.67;;
81351;SDS011;70809;52.184;13.422;2024-03-07T04:31:18;67.30;;;26.88;;
81351;SDS011;70809;52.184;13.422;2024-03-07T04:32:20;68.28;;;27.35;;
81351;SDS011;70809;52.184;13.422;2024-03-07T04:33:22;69.43;;;27.25;;
81351;SDS011;70809;52.184;13.422;2024-03-07T04:34:24;65.10;;;28.73;;
81351;SDS011;70809;52.184;13.422;2024-03-07T04:35:25;70.95;;;26.65;;
81351;SDS011;70809;52.184;13.422;2024-03-07T04:36:27;76.40;;;28.23;;
81351;SDS011;70809;52.184;13.422;2024-03-07T04:37:29;71.25;;;28.77;;
81351;SDS011;70809;52.184;13.422;2024-03-07T04:38:30;68.00;;;28.10;;
81351;SDS011;70809;52.184;13.422;2024-03-07T04:39:32;67.82;;;27.08;;
81351;SDS011;70809;52.184;13.422;2024-03-07T04:40:35;70.68;;;29.38;;
81351;SDS011;70809;52.184;13.422;2024-03-07T04:41:36;65.70;;;26.83;;
81351;SDS011;70809;52.184;13.422;2024-03-07T04:42:38;67.88;;;27.40;;
81351;SDS011;70809;52.184;13.422;2024-03-07T04:43:40;65.95;;;26.33;;
81351;SDS011;70809;52.184;13.422;2024-03-07T04:44:41;79.40;;;28.85;;
81351;SDS011;70809;52.184;13.422;2024-03-07T04:45:43;72.20;;;28.92;;
81351;SDS011;70809;52.184;13.422;2024-03-07T04:46:44;70.60;;;27.08;;
81351;SDS011;70809;52.184;13.422;2024-03-07T04:47:46;72.53;;;27.88;;
81351;SDS011;70809;52.184;13.422;2024-03-07T04:48:49;76.70;;;28.90;;
81351;SDS011;70809;52.184;13.422;2024-03-07T04:49:51;78.47;;;29.13;;
81351;SDS011;70809;52.184;13.422;2024-03-07T04:50:53;74.53;;;29.83;;
81351;SDS011;70809;52.184;13.422;2024-03-07T04:51:55;73.18;;;28.20;;
81351;SDS011;70809;52.184;13.422;2024-03-07T04:52:57;67.35;;;26.55;;
81351;SDS011;70809;52.184;13.422;2024-03-07T04:53:59;75.13;;;27.00;;
81351;SDS011;70809;52.184;13.422;2024-03-07T04:55:00;62.13;;;27.02;;
81351;SDS011;70809;52.184;13.422;2024-03-07T04:56:03;69.65;;;28.65;;
81351;SDS011;70809;52.184;13.422;2024-03-07T04:57:05;67.85;;;27.60;;
81351;SDS011;70809;52.184;13.422;2024-03-07T04:58:07;68.30;;;27.33;;
81351;SDS011;70809;52.184;13.422;2024-03-07T04:59:08;74.93;;;27.02;;
81351;SDS011;70809;52.184;13.422;2024-03-07T05:00:10;67.68;;;26.17;;
81351;SDS011;70809;52.184;13.422;2024-03-07T05:01:13;65.80;;;27.30;;
81351;SDS011;70809;52.184;13.422;2024-03-07T05:02:15;68.85;;;27.48;;
81351;SDS011;70809;52.184;13.422;2024-03-07T05:03:16;65.25;;;25.77;;
81351;SDS011;70809;52.184;13.422;2024-03-07T05:04:18;67.63;;;25.80;;
81351;SDS011;70809;52.184;13.422;2024-03-07T05:05:20;59.78;;;25.90;;
81351;SDS011;70809;52.184;13.422;2024-03-07T05:06:21;72.63;;;27.75;;
81351;SDS011;70809;52.184;13.422;2024-03-07T05:07:23;62.70;;;26.73;;
81351;SDS011;70809;52.184;13.422;2024-03-07T05:08:24;73.00;;;27.48;;
81351;SDS011;70809;52.184;13.422;2024-03-07T05:09:26;67.70;;;27.25;;
81351;SDS011;70809;52.184;13.422;2024-03-07T05:10:28;64.35;;;26.50;;
81351;SDS011;70809;52.184;13.422;2024-03-07T05:11:31;75.25;;;27.48;;
81351;SDS011;70809;52.184;13.422;2024-03-07T05:12:33;62.50;;;26.20;;
81351;SDS011;70809;52.184;13.422;2024-03-07T05:13:34;75.43;;;28.23;;
81351;SDS011;70809;52.184;13.422;2024-03-07T05:14:36;65.65;;;28.13;;
81351;SDS011;70809;52.184;13.422;2024-03-07T05:15:38;65.18;;;24.65;;
81351;SDS011;70809;52.184;13.422;2024-03-07T05:16:41;70.05;;;27.02;;
81351;SDS011;70809;52.184;13.422;2024-03-07T05:17:43;67.97;;;25.95;;
81351;SDS011;70809;52.184;13.422;2024-03-07T05:18:45;70.05;;;26.25;;
81351;SDS011;70809;52.184;13.422;2024-03-07T05:19:47;67.82;;;27.08;;
81351;SDS011;70809;52.184;13.422;2024-03-07T05:20:48;64.60;;;26.00;;
81351;SDS011;70809;52.184;13.422;2024-03-07T05:21:50;67.47;;;26.13;;
81351;SDS011;70809;52.184;13.422;2024-03-07T05:22:52;69.20;;;25.98;;
81351;SDS011;70809;52.184;13.422;2024-03-07T05:23:53;71.72;;;25.80;;
81351;SDS011;70809;52.184;13.422;2024-03-07T05:24:55;65.93;;;26.42;;
81351;SDS011;70809;52.184;13.422;2024-03-07T05:25:57;67.03;;;27.15;;
81351;SDS011;70809;52.184;13.422;2024-03-07T05:27:01;73.65;;;26.10;;
81351;SDS011;70809;52.184;13.422;2024-03-07T05:28:03;75.63;;;26.25;;
81351;SDS011;70809;52.184;13.422;2024-03-07T05:29:05;66.88;;;25.50;;
81351;SDS011;70809;52.184;13.422;2024-03-07T05:30:08;68.50;;;26.58;;
81351;SDS011;70809;52.184;13.422;2024-03-07T05:31:11;67.40;;;25.73;;
81351;SDS011;70809;52.184;13.422;2024-03-07T05:32:20;70.68;;;26.30;;
81351;SDS011;70809;52.184;13.422;2024-03-07T05:33:22;71.07;;;26.45;;
81351;SDS011;70809;52.184;13.422;2024-03-07T05:34:24;69.05;;;26.85;;
81351;SDS011;70809;52.184;13.422;2024-03-07T05:35:26;66.45;;;26.35;;
81351;SDS011;70809;52.184;13.422;2024-03-07T05:36:27;68.00;;;25.55;;
81351;SDS011;70809;52.184;13.422;2024-03-07T05:37:29;69.88;;;27.58;;
81351;SDS011;70809;52.184;13.422;2024-03-07T05:38:30;66.90;;;26.77;;
81351;SDS011;70809;52.184;13.422;2024-03-07T05:39:32;73.90;;;27.92;;
81351;SDS011;70809;52.184;13.422;2024-03-07T05:40:33;68.10;;;26.75;;
81351;SDS011;70809;52.184;13.422;2024-03-07T05:41:35;72.40;;;27.08;;
81351;SDS011;70809;52.184;13.422;2024-03-07T05:42:38;69.57;;;27.40;;
81351;SDS011;70809;52.184;13.422;2024-03-07T05:43:40;70.80;;;25.92;;
81351;SDS011;70809;52.184;13.422;2024-03-07T05:44:41;75.10;;;28.02;;
81351;SDS011;70809;52.184;13.422;2024-03-07T05:45:43;66.22;;;26.98;;
81351;SDS011;70809;52.184;13.422;2024-03-07T05:46:45;63.58;;;26.67;;
81351;SDS011;70809;52.184;13.422;2024-03-07T05:47:46;67.70;;;26.40;;
81351;SDS011;70809;52.184;13.422;2024-03-07T05:48:48;71.68;;;28.73;;
81351;SDS011;70809;52.184;13.422;2024-03-07T05:49:50;61.85;;;26.67;;
81351;SDS011;70809;52.184;13.422;2024-03-07T05:50:51;64.15;;;25.92;;
81351;SDS011;70809;52.184;13.422;2024-03-07T05:51:53;68.38;;;25.63;;
81351;SDS011;70809;52.184;13.422;2024-03-07T05:52:55;72.07;;;26.80;;
81351;SDS011;70809;52.184;13.422;2024-03-07T05:53:56;63.38;;;26.77;;
81351;SDS011;70809;52.184;13.422;2024-03-07T05:54:58;64.53;;;26.08;;
81351;SDS011;70809;52.184;13.422;2024-03-07T05:56:00;65.05;;;26.13;;